sensor_id;sensor_type;location;lat;lon;timestamp;P1;durP1;ratioP1;P2;durP2;ratioP2
65751;SDS011;52486;51.098;13.770;2023-07-13T00:01:24;2.65;;;2.20;;
65751;SDS011;52486;51.098;13.770;2023-07-13T00:03:50;2.70;;;2.17;;
65751;SDS011;52486;51.098;13.770;2023-07-13T00:06:16;2.60;;;2.00;;
65751;SDS011;52486;51.098;13.770;2023-07-13T00:08:44;2.58;;;2.03;;
65751;SDS011;52486;51.098;13.770;2023-07-13T00:11:10;3.88;;;2.10;;
65751;SDS011;52486;51.098;13.770;2023-07-13T00:13:36;3.65;;;2.30;;
65751;SDS011;52486;51.098;13.770;2023-07-13T00:16:04;3.25;;;2.00;;
65751;SDS011;52486;51.098;13.770;2023-07-13T00:18:30;2.30;;;1.90;;
65751;SDS011;52486;51.098;13.770;2023-07-13T00:20:57;3.15;;;2.17;;
65751;SDS011;52486;51.098;13.770;2023-07-13T00:23:30;2.10;;;1.90;;
65751;SDS011;52486;51.098;13.770;2023-07-13T00:25:58;2.78;;;1.95;;
65751;SDS011;52486;51.098;13.770;2023-07-13T00:28:24;3.10;;;1.88;;
65751;SDS011;52486;51.098;13.770;2023-07-13T00:30:50;2.90;;;1.95;;
65751;SDS011;52486;51.098;13.770;2023-07-13T00:33:16;2.88;;;2.10;;
65751;SDS011;52486;51.098;13.770;2023-07-13T00:35:42;4.63;;;2.40;;
65751;SDS011;52486;51.098;13.770;2023-07-13T00:38:09;3.58;;;2.00;;
65751;SDS011;52486;51.098;13.770;2023-07-13T00:40:35;4.15;;;2.20;;
65751;SDS011;52486;51.098;13.770;2023-07-13T00:43:01;2.72;;;2.08;;
65751;SDS011;52486;51.098;13.770;2023-07-13T00:47:53;2.30;;;2.10;;
65751;SDS011;52486;51.098;13.770;2023-07-13T00:50:21;2.70;;;2.13;;
65751;SDS011;52486;51.098;13.770;2023-07-13T00:52:49;2.38;;;2.00;;
65751;SDS011;52486;51.098;13.770;2023-07-13T00:55:18;2.38;;;1.85;;
65751;SDS011;52486;51.098;13.770;2023-07-13T00:57:45;3.78;;;2.20;;
65751;SDS011;52486;51.098;13.770;2023-07-13T01:00:11;3.03;;;2.10;;
65751;SDS011;52486;51.098;13.770;2023-07-13T01:02:38;3.40;;;2.38;;
65751;SDS011;52486;51.098;13.770;2023-07-13T01:05:11;4.70;;;2.45;;
65751;SDS011;52486;51.098;13.770;2023-07-13T01:07:39;3.65;;;2.00;;
65751;SDS011;52486;51.098;13.770;2023-07-13T01:10:05;2.55;;;2.03;;
65751;SDS011;52486;51.098;13.770;2023-07-13T01:12:31;3.25;;;2.15;;
65751;SDS011;52486;51.098;13.770;2023-07-13T01:14:58;2.85;;;2.17;;
65751;SDS011;52486;51.098;13.770;2023-07-13T01:17:25;2.75;;;1.98;;
65751;SDS011;52486;51.098;13.770;2023-07-13T01:19:51;2.90;;;2.08;;
65751;SDS011;52486;51.098;13.770;2023-07-13T01:22:18;2.78;;;2.17;;
65751;SDS011;52486;51.098;13.770;2023-07-13T01:24:45;2.85;;;1.98;;
65751;SDS011;52486;51.098;13.770;2023-07-13T01:27:13;3.25;;;2.17;;
65751;SDS011;52486;51.098;13.770;2023-07-13T01:29:42;2.90;;;2.10;;
65751;SDS011;52486;51.098;13.770;2023-07-13T01:32:09;3.05;;;2.10;;
65751;SDS011;52486;51.098;13.770;2023-07-13T01:34:36;2.42;;;2.00;;
65751;SDS011;52486;51.098;13.770;2023-07-13T01:37:02;3.72;;;2.15;;
65751;SDS011;52486;51.098;13.770;2023-07-13T01:39:28;2.58;;;1.92;;
65751;SDS011;52486;51.098;13.770;2023-07-13T01:41:54;2.95;;;1.90;;
65751;SDS011;52486;51.098;13.770;2023-07-13T01:44:20;4.68;;;2.33;;
65751;SDS011;52486;51.098;13.770;2023-07-13T01:46:46;2.00;;;1.80;;
65751;SDS011;52486;51.098;13.770;2023-07-13T01:49:12;3.15;;;2.33;;
65751;SDS011;52486;51.098;13.770;2023-07-13T01:51:38;2.25;;;1.90;;
65751;SDS011;52486;51.098;13.770;2023-07-13T01:54:04;2.67;;;1.90;;
65751;SDS011;52486;51.098;13.770;2023-07-13T01:56:30;3.83;;;2.13;;
65751;SDS011;52486;51.098;13.770;2023-07-13T01:58:56;2.17;;;1.95;;
65751;SDS011;52486;51.098;13.770;2023-07-13T02:01:22;4.93;;;2.50;;
65751;SDS011;52486;51.098;13.770;2023-07-13T02:03:48;2.47;;;1.88;;
65751;SDS011;52486;51.098;13.770;2023-07-13T02:06:14;3.83;;;2.20;;
65751;SDS011;52486;51.098;13.770;2023-07-13T02:08:41;2.00;;;1.77;;
65751;SDS011;52486;51.098;13.770;2023-07-13T02:11:07;2.67;;;2.03;;
65751;SDS011;52486;51.098;13.770;2023-07-13T02:13:34;2.83;;;1.83;;
65751;SDS011;52486;51.098;13.770;2023-07-13T02:16:00;2.25;;;2.00;;
65751;SDS011;52486;51.098;13.770;2023-07-13T02:18:26;2.60;;;2.05;;
65751;SDS011;52486;51.098;13.770;2023-07-13T02:20:52;2.95;;;2.08;;
65751;SDS011;52486;51.098;13.770;2023-07-13T02:23:18;2.53;;;2.10;;
65751;SDS011;52486;51.098;13.770;2023-07-13T02:25:44;3.85;;;2.15;;
65751;SDS011;52486;51.098;13.770;2023-07-13T02:28:10;3.00;;;1.92;;
65751;SDS011;52486;51.098;13.770;2023-07-13T02:30:36;2.15;;;1.50;;
65751;SDS011;52486;51.098;13.770;2023-07-13T02:33:03;3.38;;;1.98;;
65751;SDS011;52486;51.098;13.770;2023-07-13T02:35:29;2.35;;;2.08;;
65751;SDS011;52486;51.098;13.770;2023-07-13T02:37:56;3.95;;;1.80;;
65751;SDS011;52486;51.098;13.770;2023-07-13T02:40:22;2.33;;;1.80;;
65751;SDS011;52486;51.098;13.770;2023-07-13T02:42:48;3.45;;;2.00;;
65751;SDS011;52486;51.098;13.770;2023-07-13T02:45:14;3.67;;;2.00;;
65751;SDS011;52486;51.098;13.770;2023-07-13T02:47:41;2.80;;;2.10;;
65751;SDS011;52486;51.098;13.770;2023-07-13T02:50:07;2.25;;;1.92;;
65751;SDS011;52486;51.098;13.770;2023-07-13T02:52:33;3.05;;;2.20;;
65751;SDS011;52486;51.098;13.770;2023-07-13T02:54:59;4.35;;;2.45;;
65751;SDS011;52486;51.098;13.770;2023-07-13T02:57:25;2.45;;;2.10;;
65751;SDS011;52486;51.098;13.770;2023-07-13T02:59:53;2.20;;;2.00;;
65751;SDS011;52486;51.098;13.770;2023-07-13T03:02:19;2.38;;;1.98;;
65751;SDS011;52486;51.098;13.770;2023-07-13T03:04:45;1.80;;;1.70;;
65751;SDS011;52486;51.098;13.770;2023-07-13T03:07:11;2.90;;;2.28;;
65751;SDS011;52486;51.098;13.770;2023-07-13T03:09:39;1.92;;;1.75;;
65751;SDS011;52486;51.098;13.770;2023-07-13T03:12:05;2.17;;;1.98;;
65751;SDS011;52486;51.098;13.770;2023-07-13T03:14:31;3.40;;;1.95;;
65751;SDS011;52486;51.098;13.770;2023-07-13T03:16:57;3.28;;;1.98;;
65751;SDS011;52486;51.098;13.770;2023-07-13T03:19:23;3.88;;;2.30;;
65751;SDS011;52486;51.098;13.770;2023-07-13T03:21:49;3.33;;;1.98;;
65751;SDS011;52486;51.098;13.770;2023-07-13T03:24:15;2.53;;;1.80;;
65751;SDS011;52486;51.098;13.770;2023-07-13T03:26:41;2.95;;;2.25;;
65751;SDS011;52486;51.098;13.770;2023-07-13T03:29:08;4.40;;;2.22;;
65751;SDS011;52486;51.098;13.770;2023-07-13T03:31:34;2.45;;;1.92;;
65751;SDS011;52486;51.098;13.770;2023-07-13T03:34:01;2.90;;;2.03;;
65751;SDS011;52486;51.098;13.770;2023-07-13T03:36:29;2.03;;;1.60;;
65751;SDS011;52486;51.098;13.770;2023-07-13T03:38:56;2.30;;;2.03;;
65751;SDS011;52486;51.098;13.770;2023-07-13T03:41:23;2.08;;;1.70;;
65751;SDS011;52486;51.098;13.770;2023-07-13T03:43:49;3.22;;;1.88;;
65751;SDS011;52486;51.098;13.770;2023-07-13T03:46:15;2.33;;;2.10;;
65751;SDS011;52486;51.098;13.770;2023-07-13T03:48:43;2.78;;;2.10;;
65751;SDS011;52486;51.098;13.770;2023-07-13T03:51:10;2.08;;;1.75;;
65751;SDS011;52486;51.098;13.770;2023-07-13T03:53:37;2.95;;;2.00;;
65751;SDS011;52486;51.098;13.770;2023-07-13T03:56:04;2.33;;;2.00;;
65751;SDS011;52486;51.098;13.770;2023-07-13T03:58:32;2.15;;;1.63;;
65751;SDS011;52486;51.098;13.770;2023-07-13T04:00:59;3.45;;;1.90;;
65751;SDS011;52486;51.098;13.770;2023-07-13T04:03:25;1.95;;;1.70;;
65751;SDS011;52486;51.098;13.770;2023-07-13T04:05:53;2.30;;;2.10;;
65751;SDS011;52486;51.098;13.770;2023-07-13T04:08:19;2.00;;;1.73;;
65751;SDS011;52486;51.098;13.770;2023-07-13T04:10:45;2.03;;;1.85;;
65751;SDS011;52486;51.098;13.770;2023-07-13T04:13:11;2.40;;;1.90;;
65751;SDS011;52486;51.098;13.770;2023-07-13T04:15:38;2.45;;;2.13;;
65751;SDS011;52486;51.098;13.770;2023-07-13T04:18:04;2.05;;;1.80;;
65751;SDS011;52486;51.098;13.770;2023-07-13T04:20:30;2.95;;;1.90;;
65751;SDS011;52486;51.098;13.770;2023-07-13T04:22:56;2.33;;;2.00;;
65751;SDS011;52486;51.098;13.770;2023-07-13T04:25:22;2.40;;;1.80;;
65751;SDS011;52486;51.098;13.770;2023-07-13T04:27:49;2.50;;;2.00;;
65751;SDS011;52486;51.098;13.770;2023-07-13T04:30:15;2.85;;;1.63;;
65751;SDS011;52486;51.098;13.770;2023-07-13T04:32:41;2.20;;;1.67;;
65751;SDS011;52486;51.098;13.770;2023-07-13T04:35:07;1.80;;;1.70;;
65751;SDS011;52486;51.098;13.770;2023-07-13T04:37:33;2.30;;;1.80;;
65751;SDS011;52486;51.098;13.770;2023-07-13T04:40:00;2.05;;;1.60;;
65751;SDS011;52486;51.098;13.770;2023-07-13T04:42:26;3.05;;;1.90;;
65751;SDS011;52486;51.098;13.770;2023-07-13T04:44:52;2.50;;;2.10;;
65751;SDS011;52486;51.098;13.770;2023-07-13T04:47:18;1.80;;;1.70;;
65751;SDS011;52486;51.098;13.770;2023-07-13T04:49:44;2.38;;;1.58;;
65751;SDS011;52486;51.098;13.770;2023-07-13T04:52:11;2.03;;;1.80;;
65751;SDS011;52486;51.098;13.770;2023-07-13T04:54:37;2.40;;;1.70;;
65751;SDS011;52486;51.098;13.770;2023-07-13T04:57:04;2.00;;;1.60;;
65751;SDS011;52486;51.098;13.770;2023-07-13T04:59:33;2.65;;;1.80;;
65751;SDS011;52486;51.098;13.770;2023-07-13T05:01:59;1.83;;;1.60;;
65751;SDS011;52486;51.098;13.770;2023-07-13T05:04:26;1.65;;;1.48;;
65751;SDS011;52486;51.098;13.770;2023-07-13T05:06:52;1.98;;;1.70;;
65751;SDS011;52486;51.098;13.770;2023-07-13T05:09:18;1.92;;;1.70;;
65751;SDS011;52486;51.098;13.770;2023-07-13T05:11:44;1.92;;;1.70;;
65751;SDS011;52486;51.098;13.770;2023-07-13T05:14:10;1.80;;;1.70;;
65751;SDS011;52486;51.098;13.770;2023-07-13T05:16:36;2.78;;;1.42;;
65751;SDS011;52486;51.098;13.770;2023-07-13T05:19:02;2.95;;;1.67;;
65751;SDS011;52486;51.098;13.770;2023-07-13T05:21:28;2.13;;;1.60;;
65751;SDS011;52486;51.098;13.770;2023-07-13T05:23:54;2.25;;;1.92;;
65751;SDS011;52486;51.098;13.770;2023-07-13T05:26:20;2.97;;;1.50;;
65751;SDS011;52486;51.098;13.770;2023-07-13T05:28:46;2.20;;;1.60;;
65751;SDS011;52486;51.098;13.770;2023-07-13T05:31:13;2.72;;;1.67;;
65751;SDS011;52486;51.098;13.770;2023-07-13T05:33:39;1.48;;;1.38;;
65751;SDS011;52486;51.098;13.770;2023-07-13T05:36:05;1.55;;;1.45;;
65751;SDS011;52486;51.098;13.770;2023-07-13T05:38:32;1.60;;;1.48;;
65751;SDS011;52486;51.098;13.770;2023-07-13T05:40:58;1.67;;;1.58;;
65751;SDS011;52486;51.098;13.770;2023-07-13T05:43:24;1.90;;;1.65;;
65751;SDS011;52486;51.098;13.770;2023-07-13T05:45:52;1.60;;;1.50;;
65751;SDS011;52486;51.098;13.770;2023-07-13T05:48:18;1.98;;;1.42;;
65751;SDS011;52486;51.098;13.770;2023-07-13T05:50:44;1.88;;;1.63;;
65751;SDS011;52486;51.098;13.770;2023-07-13T05:53:11;1.50;;;1.40;;
65751;SDS011;52486;51.098;13.770;2023-07-13T05:55:40;1.67;;;1.35;;
65751;SDS011;52486;51.098;13.770;2023-07-13T05:58:12;1.52;;;1.30;;
65751;SDS011;52486;51.098;13.770;2023-07-13T06:00:39;1.65;;;1.50;;
65751;SDS011;52486;51.098;13.770;2023-07-13T06:03:05;1.45;;;1.35;;
65751;SDS011;52486;51.098;13.770;2023-07-13T06:05:32;1.70;;;1.50;;
65751;SDS011;52486;51.098;13.770;2023-07-13T06:07:58;2.42;;;1.33;;
65751;SDS011;52486;51.098;13.770;2023-07-13T06:10:24;1.70;;;1.55;;
65751;SDS011;52486;51.098;13.770;2023-07-13T06:12:51;5.82;;;1.77;;
65751;SDS011;52486;51.098;13.770;2023-07-13T06:15:17;5.90;;;1.67;;
65751;SDS011;52486;51.098;13.770;2023-07-13T06:17:43;3.70;;;1.75;;
65751;SDS011;52486;51.098;13.770;2023-07-13T06:20:09;3.53;;;1.80;;
65751;SDS011;52486;51.098;13.770;2023-07-13T06:22:35;1.75;;;1.40;;
65751;SDS011;52486;51.098;13.770;2023-07-13T06:25:01;4.47;;;1.63;;
65751;SDS011;52486;51.098;13.770;2023-07-13T06:27:28;2.28;;;1.58;;
65751;SDS011;52486;51.098;13.770;2023-07-13T06:29:54;5.88;;;1.67;;
65751;SDS011;52486;51.098;13.770;2023-07-13T06:32:20;3.80;;;1.50;;
65751;SDS011;52486;51.098;13.770;2023-07-13T06:34:46;1.50;;;1.40;;
65751;SDS011;52486;51.098;13.770;2023-07-13T06:37:12;4.28;;;1.77;;
65751;SDS011;52486;51.098;13.770;2023-07-13T06:39:38;1.73;;;1.52;;
65751;SDS011;52486;51.098;13.770;2023-07-13T06:42:04;3.78;;;1.77;;
65751;SDS011;52486;51.098;13.770;2023-07-13T06:44:31;1.60;;;1.50;;
65751;SDS011;52486;51.098;13.770;2023-07-13T06:46:57;3.28;;;1.50;;
65751;SDS011;52486;51.098;13.770;2023-07-13T06:49:22;3.22;;;1.50;;
65751;SDS011;52486;51.098;13.770;2023-07-13T06:51:48;1.77;;;1.38;;
65751;SDS011;52486;51.098;13.770;2023-07-13T06:54:14;2.65;;;1.63;;
65751;SDS011;52486;51.098;13.770;2023-07-13T06:56:40;2.15;;;1.50;;
65751;SDS011;52486;51.098;13.770;2023-07-13T06:59:06;3.83;;;1.83;;
65751;SDS011;52486;51.098;13.770;2023-07-13T07:01:32;2.40;;;1.70;;
65751;SDS011;52486;51.098;13.770;2023-07-13T07:03:58;1.38;;;1.27;;
65751;SDS011;52486;51.098;13.770;2023-07-13T07:06:24;2.75;;;1.83;;
65751;SDS011;52486;51.098;13.770;2023-07-13T07:08:51;13.18;;;1.85;;
65751;SDS011;52486;51.098;13.770;2023-07-13T07:11:24;3.28;;;1.90;;
65751;SDS011;52486;51.098;13.770;2023-07-13T07:13:51;6.38;;;1.95;;
65751;SDS011;52486;51.098;13.770;2023-07-13T07:16:17;6.15;;;1.83;;
65751;SDS011;52486;51.098;13.770;2023-07-13T07:18:44;3.22;;;1.60;;
65751;SDS011;52486;51.098;13.770;2023-07-13T07:21:10;4.43;;;1.67;;
65751;SDS011;52486;51.098;13.770;2023-07-13T07:23:36;10.00;;;2.30;;
65751;SDS011;52486;51.098;13.770;2023-07-13T07:26:02;9.43;;;1.98;;
65751;SDS011;52486;51.098;13.770;2023-07-13T07:28:28;7.07;;;1.73;;
65751;SDS011;52486;51.098;13.770;2023-07-13T07:30:56;2.55;;;1.38;;
65751;SDS011;52486;51.098;13.770;2023-07-13T07:33:22;11.07;;;1.90;;
65751;SDS011;52486;51.098;13.770;2023-07-13T07:35:48;7.53;;;2.25;;
65751;SDS011;52486;51.098;13.770;2023-07-13T07:38:14;2.85;;;1.70;;
65751;SDS011;52486;51.098;13.770;2023-07-13T07:40:41;9.48;;;1.65;;
65751;SDS011;52486;51.098;13.770;2023-07-13T07:43:07;3.15;;;1.52;;
65751;SDS011;52486;51.098;13.770;2023-07-13T07:45:34;1.73;;;1.50;;
65751;SDS011;52486;51.098;13.770;2023-07-13T07:48:02;2.33;;;1.27;;
65751;SDS011;52486;51.098;13.770;2023-07-13T07:50:28;6.30;;;1.42;;
65751;SDS011;52486;51.098;13.770;2023-07-13T07:52:54;3.22;;;1.80;;
65751;SDS011;52486;51.098;13.770;2023-07-13T07:55:24;16.25;;;2.00;;
65751;SDS011;52486;51.098;13.770;2023-07-13T07:57:53;7.43;;;2.00;;
65751;SDS011;52486;51.098;13.770;2023-07-13T08:00:19;6.65;;;1.77;;
65751;SDS011;52486;51.098;13.770;2023-07-13T08:02:45;2.45;;;1.40;;
65751;SDS011;52486;51.098;13.770;2023-07-13T08:05:11;8.75;;;1.60;;
65751;SDS011;52486;51.098;13.770;2023-07-13T08:07:38;4.97;;;1.40;;
65751;SDS011;52486;51.098;13.770;2023-07-13T08:10:05;10.75;;;1.88;;
65751;SDS011;52486;51.098;13.770;2023-07-13T08:12:35;2.83;;;1.60;;
65751;SDS011;52486;51.098;13.770;2023-07-13T08:15:01;3.70;;;1.88;;
65751;SDS011;52486;51.098;13.770;2023-07-13T08:17:28;2.45;;;1.70;;
65751;SDS011;52486;51.098;13.770;2023-07-13T08:19:54;4.47;;;1.63;;
65751;SDS011;52486;51.098;13.770;2023-07-13T08:22:20;2.88;;;1.35;;
65751;SDS011;52486;51.098;13.770;2023-07-13T08:24:46;3.38;;;1.50;;
65751;SDS011;52486;51.098;13.770;2023-07-13T08:27:20;2.55;;;1.35;;
65751;SDS011;52486;51.098;13.770;2023-07-13T08:29:47;4.55;;;1.60;;
65751;SDS011;52486;51.098;13.770;2023-07-13T08:32:13;1.80;;;1.33;;
65751;SDS011;52486;51.098;13.770;2023-07-13T08:34:39;5.45;;;1.40;;
65751;SDS011;52486;51.098;13.770;2023-07-13T08:37:05;2.78;;;1.23;;
65751;SDS011;52486;51.098;13.770;2023-07-13T08:39:32;4.38;;;1.38;;
65751;SDS011;52486;51.098;13.770;2023-07-13T08:41:59;5.15;;;1.63;;
65751;SDS011;52486;51.098;13.770;2023-07-13T08:47:17;4.15;;;1.52;;
65751;SDS011;52486;51.098;13.770;2023-07-13T08:49:47;3.97;;;1.60;;
65751;SDS011;52486;51.098;13.770;2023-07-13T08:52:46;4.18;;;1.35;;
65751;SDS011;52486;51.098;13.770;2023-07-13T08:55:21;2.00;;;1.30;;
65751;SDS011;52486;51.098;13.770;2023-07-13T08:57:50;1.58;;;1.20;;
65751;SDS011;52486;51.098;13.770;2023-07-13T09:00:31;1.67;;;1.27;;
65751;SDS011;52486;51.098;13.770;2023-07-13T09:03:02;3.35;;;1.80;;
65751;SDS011;52486;51.098;13.770;2023-07-13T09:17:03;3.95;;;1.60;;
65751;SDS011;52486;51.098;13.770;2023-07-13T09:19:31;1.67;;;1.25;;
65751;SDS011;52486;51.098;13.770;2023-07-13T09:21:58;8.13;;;1.60;;
65751;SDS011;52486;51.098;13.770;2023-07-13T09:26:53;10.23;;;1.67;;
65751;SDS011;52486;51.098;13.770;2023-07-13T09:29:23;2.72;;;1.30;;
65751;SDS011;52486;51.098;13.770;2023-07-13T09:31:54;6.88;;;1.20;;
65751;SDS011;52486;51.098;13.770;2023-07-13T09:34:23;4.72;;;1.75;;
65751;SDS011;52486;51.098;13.770;2023-07-13T09:36:49;5.00;;;1.60;;
65751;SDS011;52486;51.098;13.770;2023-07-13T09:39:24;4.35;;;1.27;;
65751;SDS011;52486;51.098;13.770;2023-07-13T09:41:55;4.45;;;1.52;;
65751;SDS011;52486;51.098;13.770;2023-07-13T09:44:36;4.45;;;1.20;;
65751;SDS011;52486;51.098;13.770;2023-07-13T09:47:12;2.70;;;1.27;;
65751;SDS011;52486;51.098;13.770;2023-07-13T09:49:41;4.32;;;1.50;;
65751;SDS011;52486;51.098;13.770;2023-07-13T09:52:14;1.90;;;1.30;;
65751;SDS011;52486;51.098;13.770;2023-07-13T09:54:44;3.33;;;1.40;;
65751;SDS011;52486;51.098;13.770;2023-07-13T09:57:16;2.85;;;1.20;;
65751;SDS011;52486;51.098;13.770;2023-07-13T09:59:45;4.93;;;1.60;;
65751;SDS011;52486;51.098;13.770;2023-07-13T10:02:58;2.72;;;1.40;;
65751;SDS011;52486;51.098;13.770;2023-07-13T10:07:28;4.60;;;1.60;;
65751;SDS011;52486;51.098;13.770;2023-07-13T10:09:56;2.67;;;1.70;;
65751;SDS011;52486;51.098;13.770;2023-07-13T10:12:23;7.00;;;1.80;;
65751;SDS011;52486;51.098;13.770;2023-07-13T10:14:59;4.13;;;1.70;;
65751;SDS011;52486;51.098;13.770;2023-07-13T10:17:27;2.47;;;1.58;;
65751;SDS011;52486;51.098;13.770;2023-07-13T10:20:00;2.75;;;1.48;;
65751;SDS011;52486;51.098;13.770;2023-07-13T10:22:38;2.05;;;1.20;;
65751;SDS011;52486;51.098;13.770;2023-07-13T10:25:16;5.72;;;1.58;;
65751;SDS011;52486;51.098;13.770;2023-07-13T10:27:51;2.33;;;1.42;;
65751;SDS011;52486;51.098;13.770;2023-07-13T10:30:27;3.28;;;1.55;;
65751;SDS011;52486;51.098;13.770;2023-07-13T10:33:00;4.85;;;1.60;;
65751;SDS011;52486;51.098;13.770;2023-07-13T10:35:29;3.05;;;1.45;;
65751;SDS011;52486;51.098;13.770;2023-07-13T10:38:06;3.47;;;1.30;;
65751;SDS011;52486;51.098;13.770;2023-07-13T10:43:04;1.27;;;1.08;;
65751;SDS011;52486;51.098;13.770;2023-07-13T10:45:34;2.65;;;1.60;;
65751;SDS011;52486;51.098;13.770;2023-07-13T10:48:02;2.60;;;1.63;;
65751;SDS011;52486;51.098;13.770;2023-07-13T10:50:29;5.00;;;2.00;;
65751;SDS011;52486;51.098;13.770;2023-07-13T10:53:03;7.35;;;2.08;;
65751;SDS011;52486;51.098;13.770;2023-07-13T10:58:19;2.65;;;1.70;;
65751;SDS011;52486;51.098;13.770;2023-07-13T11:03:32;4.55;;;1.98;;
65751;SDS011;52486;51.098;13.770;2023-07-13T11:08:50;8.80;;;1.58;;
65751;SDS011;52486;51.098;13.770;2023-07-13T11:18:45;3.92;;;1.40;;
65751;SDS011;52486;51.098;13.770;2023-07-13T11:23:44;2.53;;;1.55;;
65751;SDS011;52486;51.098;13.770;2023-07-13T11:31:54;2.65;;;1.60;;
65751;SDS011;52486;51.098;13.770;2023-07-13T11:34:35;1.95;;;1.45;;
65751;SDS011;52486;51.098;13.770;2023-07-13T11:37:03;2.28;;;1.73;;
65751;SDS011;52486;51.098;13.770;2023-07-13T11:39:33;3.00;;;1.88;;
65751;SDS011;52486;51.098;13.770;2023-07-13T11:42:08;3.92;;;1.65;;
65751;SDS011;52486;51.098;13.770;2023-07-13T11:44:41;4.30;;;1.60;;
65751;SDS011;52486;51.098;13.770;2023-07-13T11:47:22;5.28;;;1.83;;
65751;SDS011;52486;51.098;13.770;2023-07-13T11:49:54;2.78;;;1.48;;
65751;SDS011;52486;51.098;13.770;2023-07-13T11:52:22;2.45;;;1.50;;
65751;SDS011;52486;51.098;13.770;2023-07-13T11:54:52;3.53;;;1.50;;
65751;SDS011;52486;51.098;13.770;2023-07-13T11:57:26;4.43;;;1.60;;
65751;SDS011;52486;51.098;13.770;2023-07-13T11:59:54;4.18;;;1.60;;
65751;SDS011;52486;51.098;13.770;2023-07-13T12:02:28;5.47;;;1.77;;
65751;SDS011;52486;51.098;13.770;2023-07-13T12:04:55;4.28;;;1.58;;
65751;SDS011;52486;51.098;13.770;2023-07-13T12:07:22;3.60;;;1.73;;
65751;SDS011;52486;51.098;13.770;2023-07-13T12:09:48;5.28;;;1.67;;
65751;SDS011;52486;51.098;13.770;2023-07-13T12:12:21;6.20;;;1.73;;
65751;SDS011;52486;51.098;13.770;2023-07-13T12:14:51;5.70;;;1.95;;
65751;SDS011;52486;51.098;13.770;2023-07-13T12:17:22;2.60;;;1.42;;
65751;SDS011;52486;51.098;13.770;2023-07-13T12:19:48;3.42;;;1.45;;
65751;SDS011;52486;51.098;13.770;2023-07-13T12:22:17;2.38;;;1.50;;
65751;SDS011;52486;51.098;13.770;2023-07-13T12:24:45;3.85;;;1.50;;
65751;SDS011;52486;51.098;13.770;2023-07-13T12:27:20;8.77;;;1.48;;
65751;SDS011;52486;51.098;13.770;2023-07-13T12:32:26;2.88;;;1.60;;
65751;SDS011;52486;51.098;13.770;2023-07-13T12:37:28;4.30;;;1.67;;
65751;SDS011;52486;51.098;13.770;2023-07-13T12:39:55;3.92;;;1.60;;
65751;SDS011;52486;51.098;13.770;2023-07-13T12:42:23;8.27;;;1.75;;
65751;SDS011;52486;51.098;13.770;2023-07-13T12:44:54;5.03;;;1.73;;
65751;SDS011;52486;51.098;13.770;2023-07-13T12:47:26;5.13;;;1.80;;
65751;SDS011;52486;51.098;13.770;2023-07-13T12:49:53;4.13;;;1.90;;
65751;SDS011;52486;51.098;13.770;2023-07-13T12:52:22;4.07;;;2.00;;
65751;SDS011;52486;51.098;13.770;2023-07-13T12:54:55;2.65;;;1.95;;
65751;SDS011;52486;51.098;13.770;2023-07-13T12:57:23;2.47;;;1.52;;
65751;SDS011;52486;51.098;13.770;2023-07-13T12:59:53;3.78;;;1.65;;
65751;SDS011;52486;51.098;13.770;2023-07-13T13:02:33;8.27;;;1.92;;
65751;SDS011;52486;51.098;13.770;2023-07-13T13:07:26;3.42;;;1.40;;
65751;SDS011;52486;51.098;13.770;2023-07-13T13:09:52;4.32;;;1.88;;
65751;SDS011;52486;51.098;13.770;2023-07-13T13:12:19;5.93;;;1.80;;
65751;SDS011;52486;51.098;13.770;2023-07-13T13:14:45;3.63;;;1.77;;
65751;SDS011;52486;51.098;13.770;2023-07-13T13:17:18;3.15;;;1.60;;
65751;SDS011;52486;51.098;13.770;2023-07-13T13:19:46;2.65;;;1.40;;
65751;SDS011;52486;51.098;13.770;2023-07-13T13:22:12;2.88;;;1.60;;
65751;SDS011;52486;51.098;13.770;2023-07-13T13:24:39;3.47;;;1.52;;
65751;SDS011;52486;51.098;13.770;2023-07-13T13:27:09;3.15;;;1.55;;
65751;SDS011;52486;51.098;13.770;2023-07-13T13:29:42;2.88;;;1.60;;
65751;SDS011;52486;51.098;13.770;2023-07-13T13:32:10;2.25;;;1.27;;
65751;SDS011;52486;51.098;13.770;2023-07-13T13:34:37;3.40;;;1.40;;
65751;SDS011;52486;51.098;13.770;2023-07-13T13:37:04;3.92;;;1.60;;
65751;SDS011;52486;51.098;13.770;2023-07-13T13:39:45;4.13;;;1.55;;
65751;SDS011;52486;51.098;13.770;2023-07-13T13:42:11;2.70;;;1.48;;
65751;SDS011;52486;51.098;13.770;2023-07-13T13:44:38;6.55;;;1.60;;
65751;SDS011;52486;51.098;13.770;2023-07-13T13:47:07;3.42;;;1.30;;
65751;SDS011;52486;51.098;13.770;2023-07-13T13:49:47;2.67;;;1.30;;
65751;SDS011;52486;51.098;13.770;2023-07-13T13:52:13;3.03;;;1.48;;
65751;SDS011;52486;51.098;13.770;2023-07-13T13:54:40;2.17;;;1.40;;
65751;SDS011;52486;51.098;13.770;2023-07-13T13:57:07;3.90;;;1.33;;
65751;SDS011;52486;51.098;13.770;2023-07-13T13:59:33;3.92;;;1.38;;
65751;SDS011;52486;51.098;13.770;2023-07-13T14:02:07;1.95;;;1.25;;
65751;SDS011;52486;51.098;13.770;2023-07-13T14:04:50;2.40;;;1.40;;
65751;SDS011;52486;51.098;13.770;2023-07-13T14:07:22;5.70;;;1.63;;
65751;SDS011;52486;51.098;13.770;2023-07-13T14:09:48;3.33;;;1.55;;
65751;SDS011;52486;51.098;13.770;2023-07-13T14:12:15;2.45;;;1.55;;
65751;SDS011;52486;51.098;13.770;2023-07-13T14:14:41;2.47;;;1.83;;
65751;SDS011;52486;51.098;13.770;2023-07-13T14:17:25;4.28;;;1.50;;
65751;SDS011;52486;51.098;13.770;2023-07-13T14:19:52;4.32;;;1.42;;
65751;SDS011;52486;51.098;13.770;2023-07-13T14:22:25;1.92;;;1.30;;
65751;SDS011;52486;51.098;13.770;2023-07-13T14:24:52;2.65;;;1.42;;
65751;SDS011;52486;51.098;13.770;2023-07-13T14:27:18;3.50;;;1.80;;
65751;SDS011;52486;51.098;13.770;2023-07-13T14:29:44;2.30;;;1.40;;
65751;SDS011;52486;51.098;13.770;2023-07-13T14:32:11;5.32;;;1.38;;
65751;SDS011;52486;51.098;13.770;2023-07-13T14:34:37;2.63;;;1.50;;
65751;SDS011;52486;51.098;13.770;2023-07-13T14:37:03;8.32;;;1.58;;
65751;SDS011;52486;51.098;13.770;2023-07-13T14:39:30;4.30;;;1.60;;
65751;SDS011;52486;51.098;13.770;2023-07-13T14:41:57;5.95;;;1.20;;
65751;SDS011;52486;51.098;13.770;2023-07-13T14:44:29;5.43;;;1.65;;
65751;SDS011;52486;51.098;13.770;2023-07-13T14:46:57;2.25;;;1.30;;
65751;SDS011;52486;51.098;13.770;2023-07-13T14:49:31;1.98;;;1.10;;
65751;SDS011;52486;51.098;13.770;2023-07-13T14:51:58;7.47;;;1.30;;
65751;SDS011;52486;51.098;13.770;2023-07-13T14:54:35;5.45;;;1.38;;
65751;SDS011;52486;51.098;13.770;2023-07-13T14:57:08;3.37;;;1.50;;
65751;SDS011;52486;51.098;13.770;2023-07-13T14:59:35;2.40;;;1.17;;
65751;SDS011;52486;51.098;13.770;2023-07-13T15:02:00;5.18;;;1.08;;
65751;SDS011;52486;51.098;13.770;2023-07-13T15:04:26;2.85;;;1.48;;
65751;SDS011;52486;51.098;13.770;2023-07-13T15:07:00;4.72;;;1.30;;
65751;SDS011;52486;51.098;13.770;2023-07-13T15:09:27;2.35;;;1.25;;
65751;SDS011;52486;51.098;13.770;2023-07-13T15:11:57;1.88;;;1.30;;
65751;SDS011;52486;51.098;13.770;2023-07-13T15:14:24;4.82;;;1.25;;
65751;SDS011;52486;51.098;13.770;2023-07-13T15:16:51;1.52;;;1.10;;
65751;SDS011;52486;51.098;13.770;2023-07-13T15:19:19;2.05;;;1.15;;
65751;SDS011;52486;51.098;13.770;2023-07-13T15:21:46;2.45;;;1.35;;
65751;SDS011;52486;51.098;13.770;2023-07-13T15:24:13;4.03;;;1.45;;
65751;SDS011;52486;51.098;13.770;2023-07-13T15:26:40;4.80;;;1.40;;
65751;SDS011;52486;51.098;13.770;2023-07-13T15:29:10;1.97;;;1.40;;
65751;SDS011;52486;51.098;13.770;2023-07-13T15:31:36;5.70;;;1.20;;
65751;SDS011;52486;51.098;13.770;2023-07-13T15:34:07;3.55;;;1.50;;